Time;durP1;ratioP1;P1;durP2;ratioP2;P2;SDS_P1;SDS_P2;PMS_P1;PMS_P2;Temp;Humidity;BMP_temperature;BMP_pressure;BME280_temperature;BME280_humidity;BME280_pressure;Samples;Min_cycle;Max_cycle;Signal;HPM_P1;HPM_P2
2022/01/13 00:01:41;;;;;;;23.63;12.00;;;;;;;-0.08;100.00;102433.84;5096987;28;20030;-69
2022/01/13 00:04:09;;;;;;;25.77;12.40;;;;;;;-0.06;100.00;102440.06;5097816;28;20093;-69
2022/01/13 00:06:35;;;;;;;25.00;13.73;;;;;;;-0.22;100.00;102429.66;5079354;28;20105;-69
2022/01/13 00:09:01;;;;;;;23.15;12.00;;;;;;;-0.32;100.00;102406.50;5108908;28;20027;-69
2022/01/13 00:11:26;;;;;;;24.35;12.38;;;;;;;-0.19;100.00;102429.81;5108656;28;20024;-69
2022/01/13 00:14:11;;;;;;;23.13;11.65;;;;;;;-0.08;100.00;102449.53;5109350;28;20027;-68
2022/01/13 00:16:42;;;;;;;31.50;12.57;;;;;;;-0.09;100.00;102442.53;5106460;28;20052;-68
2022/01/13 00:21:51;;;;;;;18.70;10.80;;;;;;;-0.18;100.00;102455.13;5129295;28;20027;-68
2022/01/13 00:24:16;;;;;;;20.63;11.48;;;;;;;-0.11;100.00;102457.22;5105361;28;20106;-68
2022/01/13 00:26:42;;;;;;;28.90;14.02;;;;;;;-0.08;100.00;102460.00;5104907;28;20028;-69
2022/01/13 00:29:31;;;;;;;;;;;;;;;;;;;;;
2022/01/13 00:32:03;;;;;;;21.48;11.77;;;;;;;-0.10;100.00;102474.72;5090014;28;20032;-67
2022/01/13 00:34:32;;;;;;;19.30;11.43;;;;;;;-0.10;100.00;102477.31;5089016;28;20101;-68
2022/01/13 00:36:58;;;;;;;21.70;12.23;;;;;;;-0.19;100.00;102463.81;5088025;28;20774;-67
2022/01/13 00:39:24;;;;;;;26.52;12.13;;;;;;;-0.09;100.00;102479.13;5088008;28;20028;-68
2022/01/13 00:41:50;;;;;;;25.20;12.98;;;;;;;-0.11;100.00;102469.41;5089036;28;20502;-68
2022/01/13 00:44:19;;;;;;;21.60;12.30;;;;;;;-0.10;100.00;102472.09;5088777;28;20028;-67
2022/01/13 00:47:00;;;;;;;26.75;12.75;;;;;;;-0.11;100.00;102475.53;5094565;28;20024;-69
2022/01/13 00:49:26;;;;;;;20.48;11.88;;;;;;;-0.10;100.00;102472.09;5092786;28;20031;-69
2022/01/13 00:51:52;;;;;;;25.52;12.68;;;;;;;-0.06;100.00;102474.06;5104998;28;20028;-69
2022/01/13 00:54:17;;;;;;;21.65;13.07;;;;;;;-0.13;100.00;102471.94;5106689;28;20118;-69
2022/01/13 00:56:43;;;;;;;23.00;12.43;;;;;;;-0.14;100.00;102458.81;5098350;28;20098;-69
2022/01/13 00:59:11;;;;;;;23.83;12.27;;;;;;;-0.04;100.00;102471.50;5077637;28;20020;-68
2022/01/13 01:01:42;;;;;;;25.40;12.35;;;;;;;-0.10;100.00;102482.56;5078922;28;20019;-68
2022/01/13 01:04:08;;;;;;;23.92;12.10;;;;;;;-0.12;100.00;102492.06;5095255;28;20517;-69
2022/01/13 01:06:35;;;;;;;22.75;11.23;;;;;;;-0.15;100.00;102494.50;5098235;28;20047;-68
2022/01/13 01:09:01;;;;;;;19.75;11.95;;;;;;;-0.20;100.00;102497.72;5097599;28;20023;-68
2022/01/13 01:11:27;;;;;;;22.10;11.80;;;;;;;-0.22;100.00;102496.75;5096521;28;20398;-68
2022/01/13 01:13:55;;;;;;;28.70;14.25;;;;;;;-0.15;100.00;102496.25;5096721;28;20024;-68
2022/01/13 01:16:21;;;;;;;25.33;12.52;;;;;;;-0.17;100.00;102488.31;5097425;28;20500;-68
2022/01/13 01:31:33;;;;;;;24.15;13.10;;;;;;;-0.09;100.00;102510.53;5111112;28;20030;-67
2022/01/13 01:36:43;;;;;;;24.77;14.00;;;;;;;-0.13;100.00;102498.09;5111349;28;20498;-68
2022/01/13 01:39:09;;;;;;;26.80;15.30;;;;;;;-0.06;100.00;102501.91;5103226;28;20096;-67
2022/01/13 01:41:38;;;;;;;26.48;14.23;;;;;;;-0.09;100.00;102481.75;5091103;28;20055;-68
2022/01/13 01:44:11;;;;;;;25.40;13.60;;;;;;;0.11;100.00;102500.13;5091489;28;20024;-68
2022/01/13 01:46:39;;;;;;;18.35;11.45;;;;;;;0.15;100.00;102494.25;5091708;28;20020;-68
2022/01/13 01:49:16;;;;;;;26.73;13.48;;;;;;;0.12;100.00;102496.69;5091602;28;20429;-67
2022/01/13 01:51:44;;;;;;;21.88;12.27;;;;;;;0.07;100.00;102500.81;5093244;28;20057;-67
2022/01/13 01:54:10;;;;;;;23.33;13.05;;;;;;;0.04;100.00;102493.69;5072823;28;20490;-67
2022/01/13 01:56:37;;;;;;;26.75;13.88;;;;;;;-0.17;100.00;102480.47;5093777;28;20119;-68
2022/01/13 01:59:05;;;;;;;24.02;13.27;;;;;;;-0.11;100.00;102496.47;5110548;28;20563;-68
2022/01/13 02:01:30;;;;;;;24.90;13.50;;;;;;;-0.16;100.00;102486.59;5108196;28;20027;-68
2022/01/13 02:03:56;;;;;;;23.98;12.55;;;;;;;-0.14;100.00;102491.09;5108162;28;20028;-68
2022/01/13 02:06:21;;;;;;;25.90;13.82;;;;;;;-0.24;100.00;102483.59;5111396;28;20048;-68
2022/01/13 02:08:47;;;;;;;22.20;12.65;;;;;;;-0.24;100.00;102490.53;5108236;28;20047;-68
2022/01/13 02:11:14;;;;;;;25.67;13.57;;;;;;;-0.53;100.00;102438.53;5110839;28;20061;-67
2022/01/13 02:13:47;;;;;;;23.05;14.13;;;;;;;-0.34;100.00;102486.56;5111104;28;20398;-67
2022/01/13 02:16:36;;;;;;;26.58;13.18;;;;;;;-0.35;100.00;102476.94;5111185;28;20075;-67
2022/01/13 02:18:58;;;;;;;28.40;12.85;;;;;;;-0.39;100.00;102472.38;5127058;27;20039;-68
2022/01/13 02:21:26;;;;;;;21.45;13.13;;;;;;;-0.42;100.00;102474.84;5104462;27;20050;-68
2022/01/13 02:23:52;;;;;;;25.23;13.20;;;;;;;-0.41;100.00;102478.31;5090903;28;20075;-68
2022/01/13 02:26:18;;;;;;;27.23;13.73;;;;;;;-0.53;100.00;102468.16;5091406;28;20028;-68
2022/01/13 02:28:44;;;;;;;25.30;12.18;;;;;;;-0.49;100.00;102463.97;5111817;28;20498;-68
2022/01/13 02:31:11;;;;;;;22.75;12.88;;;;;;;-0.54;100.00;102468.06;5092116;28;20489;-68
2022/01/13 02:33:36;;;;;;;24.27;13.68;;;;;;;-0.58;100.00;102464.44;5110586;28;20077;-68
2022/01/13 02:36:04;;;;;;;26.50;15.07;;;;;;;-0.49;100.00;102462.28;5110837;28;20429;-68
2022/01/13 02:38:29;;;;;;;27.33;14.63;;;;;;;-0.51;100.00;102461.28;5111109;28;20031;-68
2022/01/13 02:40:56;;;;;;;28.35;14.15;;;;;;;-0.49;100.00;102454.44;5110870;28;20036;-68
2022/01/13 02:43:24;;;;;;;27.45;13.73;;;;;;;-0.48;100.00;102439.66;5111011;28;20102;-68
2022/01/13 02:48:31;;;;;;;25.90;14.38;;;;;;;-0.37;100.00;102459.38;5107046;28;20027;-67
2022/01/13 02:50:58;;;;;;;25.85;14.15;;;;;;;-0.39;100.00;102454.06;5093724;28;20032;-67
2022/01/13 02:53:24;;;;;;;27.75;15.25;;;;;;;-0.42;100.00;102461.78;5090483;28;20404;-67
2022/01/13 02:55:51;;;;;;;24.10;14.25;;;;;;;-0.41;100.00;102467.88;5090260;28;20036;-67
2022/01/13 02:58:17;;;;;;;26.77;13.77;;;;;;;-0.52;100.00;102446.44;5107216;28;20066;-67
2022/01/13 03:00:44;;;;;;;29.33;13.88;;;;;;;-0.41;100.00;102479.22;5091451;28;20161;-67
2022/01/13 03:03:10;;;;;;;27.90;13.77;;;;;;;-0.46;100.00;102470.25;5110635;28;20030;-67
2022/01/13 03:05:38;;;;;;;34.05;15.27;;;;;;;-0.39;100.00;102471.47;5080718;28;20032;-67
2022/01/13 03:08:06;;;;;;;28.48;15.05;;;;;;;-0.42;100.00;102467.00;5089418;28;20050;-67
2022/01/13 03:10:32;;;;;;;22.40;13.13;;;;;;;-0.46;100.00;102459.81;5089380;28;20114;-67
2022/01/13 03:12:58;;;;;;;31.25;14.13;;;;;;;-0.46;100.00;102467.66;5089413;28;20107;-67
2022/01/13 03:15:24;;;;;;;25.63;13.50;;;;;;;-0.54;100.00;102471.59;5089777;28;20052;-67
2022/01/13 03:17:49;;;;;;;24.88;14.02;;;;;;;-0.56;100.00;102459.28;5103650;27;20038;-67
2022/01/13 03:20:15;;;;;;;26.52;13.52;;;;;;;-0.54;100.00;102461.13;5130057;27;20030;-67
2022/01/13 03:22:41;;;;;;;25.73;14.27;;;;;;;-0.50;100.00;102462.19;5130247;27;20424;-67
2022/01/13 03:25:07;;;;;;;29.67;14.57;;;;;;;-0.54;100.00;102463.75;5130937;27;20042;-67
2022/01/13 03:27:35;;;;;;;25.42;12.85;;;;;;;-0.52;100.00;102459.50;5106265;27;20553;-67
2022/01/13 03:30:07;;;;;;;26.65;13.52;;;;;;;-0.58;100.00;102442.63;5089012;28;20468;-67
2022/01/13 03:32:34;;;;;;;22.70;13.63;;;;;;;-0.47;100.00;102458.03;5089250;28;20031;-67
2022/01/13 03:35:00;;;;;;;29.85;13.93;;;;;;;-0.46;100.00;102457.19;5089811;28;20027;-67
2022/01/13 03:37:27;;;;;;;25.17;13.15;;;;;;;-0.47;100.00;102446.66;5089946;28;20497;-67
2022/01/13 03:39:52;;;;;;;31.67;13.93;;;;;;;-0.46;100.00;102449.34;5108829;28;20047;-67
2022/01/13 03:42:18;;;;;;;24.20;13.82;;;;;;;-0.54;100.00;102439.31;5108703;28;20076;-67
2022/01/13 03:44:43;;;;;;;24.67;13.23;;;;;;;-0.51;100.00;102458.69;5109515;28;20030;-67
2022/01/13 03:47:10;;;;;;;22.08;12.13;;;;;;;-0.54;100.00;102450.69;5107630;28;20110;-67
2022/01/13 03:49:36;;;;;;;27.08;13.82;;;;;;;-0.58;100.00;102447.84;5106148;28;20027;-67
2022/01/13 03:52:04;;;;;;;25.73;13.48;;;;;;;-0.60;100.00;102460.84;5109270;28;20035;-67
2022/01/13 03:54:32;;;;;;;21.88;12.55;;;;;;;-0.64;100.00;102460.63;5091078;28;20032;-67
2022/01/13 03:57:01;;;;;;;29.10;13.90;;;;;;;-0.90;100.00;102447.91;5109234;28;20019;-67
2022/01/13 04:00:11;;;;;;;25.58;14.65;;;;;;;-1.12;100.00;102450.22;5105760;28;20168;-67
2022/01/13 04:02:37;;;;;;;23.00;13.02;;;;;;;-1.16;100.00;102454.38;5093095;28;20035;-67
2022/01/13 04:05:02;;;;;;;26.40;13.32;;;;;;;-1.18;100.00;102465.53;5109059;28;20057;-67
2022/01/13 04:07:28;;;;;;;21.80;12.38;;;;;;;-1.24;100.00;102470.44;5107511;28;20016;-67
2022/01/13 04:09:53;;;;;;;20.25;11.63;;;;;;;-0.96;100.00;102458.94;5105113;28;20023;-67
2022/01/13 04:12:20;;;;;;;23.67;13.10;;;;;;;-1.02;100.00;102470.78;5108746;28;20031;-67
2022/01/13 04:14:50;;;;;;;21.38;12.60;;;;;;;-0.89;100.00;102465.38;5090784;28;20031;-67
2022/01/13 04:17:18;;;;;;;26.98;13.80;;;;;;;-1.19;100.00;102484.66;5105089;28;20055;-67
2022/01/13 04:19:44;;;;;;;29.63;13.27;;;;;;;-1.28;100.00;102484.16;5108717;28;20024;-67
2022/01/13 04:22:10;;;;;;;22.90;11.60;;;;;;;-1.37;100.00;102476.72;5108995;28;20028;-67
2022/01/13 04:24:38;;;;;;;20.15;12.40;;;;;;;-1.33;100.00;102485.63;5109110;28;20038;-67
2022/01/13 04:27:04;;;;;;;19.13;11.45;;;;;;;-1.40;100.00;102471.34;5104128;28;20020;-67
2022/01/13 04:29:34;;;;;;;22.10;12.30;;;;;;;-1.29;100.00;102472.81;5108982;28;20032;-67
2022/01/13 04:32:00;;;;;;;20.98;11.57;;;;;;;-1.13;100.00;102479.75;5107600;28;20110;-67
2022/01/13 04:34:26;;;;;;;26.27;12.55;;;;;;;-1.14;100.00;102478.88;5107564;28;20031;-67
2022/01/13 04:36:54;;;;;;;23.92;13.23;;;;;;;-1.13;100.00;102491.09;5090774;28;20035;-67
2022/01/13 04:39:20;;;;;;;24.77;13.30;;;;;;;-1.18;100.00;102481.19;5108807;28;20547;-67
2022/01/13 04:41:47;;;;;;;21.60;12.55;;;;;;;-1.20;100.00;102486.34;5090508;28;20031;-67
2022/01/13 04:44:18;;;;;;;24.05;12.20;;;;;;;-1.25;100.00;102485.19;5079888;28;20515;-67
2022/01/13 04:46:44;;;;;;;32.28;13.70;;;;;;;-1.24;100.00;102491.31;5088618;28;20391;-67
2022/01/13 04:49:10;;;;;;;22.48;13.30;;;;;;;-1.26;100.00;102488.63;5070063;28;20484;-68
2022/01/13 04:51:37;;;;;;;35.35;14.10;;;;;;;-1.27;100.00;102491.16;5088524;28;20036;-68
2022/01/13 04:54:04;;;;;;;29.15;12.80;;;;;;;-1.26;100.00;102487.72;5088344;28;20145;-68
2022/01/13 04:57:16;;;;;;;26.17;13.82;;;;;;;-1.26;100.00;102487.72;5090912;28;20035;-67
2022/01/13 04:59:19;;;;;;;25.50;14.20;;;;;;;-1.13;100.00;102475.44;5102381;28;20156;-67
2022/01/13 05:01:44;;;;;;;35.60;14.10;;;;;;;-1.17;100.00;102467.34;5112875;28;20089;-67
2022/01/13 05:04:10;;;;;;;25.17;14.07;;;;;;;-1.19;100.00;102475.09;5112799;28;20502;-67
2022/01/13 05:06:36;;;;;;;26.65;15.02;;;;;;;-1.19;100.00;102480.34;5112614;28;20039;-67
2022/01/13 05:09:02;;;;;;;27.85;16.20;;;;;;;-1.24;100.00;102487.00;5111812;28;20095;-67
2022/01/13 05:11:28;;;;;;;23.90;13.32;;;;;;;-1.31;100.00;102479.66;5097976;28;20016;-67
2022/01/13 05:13:53;;;;;;;27.35;15.00;;;;;;;-1.40;100.00;102480.06;5091591;28;20028;-67
2022/01/13 05:16:24;;;;;;;34.10;17.17;;;;;;;-1.37;100.00;102488.03;5092581;28;20115;-67
2022/01/13 05:21:27;;;;;;;37.35;18.95;;;;;;;-1.29;100.00;102492.78;5112296;28;20024;-67
2022/01/13 05:24:01;;;;;;;42.47;20.45;;;;;;;-1.30;100.00;102493.63;5112650;28;20030;-67
2022/01/13 05:26:27;;;;;;;45.42;24.85;;;;;;;-1.39;100.00;102487.09;5091089;28;20165;-67
2022/01/13 05:28:52;;;;;;;39.70;20.25;;;;;;;-1.33;100.00;102494.34;5090986;28;20106;-67
2022/01/13 05:31:18;;;;;;;38.38;20.08;;;;;;;-1.38;100.00;102485.34;5091726;28;20049;-67
2022/01/13 05:33:43;;;;;;;37.83;17.85;;;;;;;-1.31;100.00;102495.31;5091901;28;20032;-67
2022/01/13 05:36:08;;;;;;;33.83;19.02;;;;;;;-1.31;100.00;102503.16;5085549;28;20030;-67
2022/01/13 05:38:34;;;;;;;33.88;15.65;;;;;;;-1.35;100.00;102496.88;5108661;28;20011;-67
2022/01/13 05:40:59;;;;;;;29.27;15.85;;;;;;;-1.47;100.00;102498.78;5111466;28;20031;-67
2022/01/13 05:43:25;;;;;;;26.50;14.75;;;;;;;-1.50;100.00;102497.75;5111797;28;20027;-67
2022/01/13 05:45:51;;;;;;;27.58;14.25;;;;;;;-1.54;100.00;102493.16;5112074;28;20028;-67
2022/01/13 05:48:16;;;;;;;31.60;15.30;;;;;;;-1.55;100.00;102501.81;5112490;28;20459;-68
2022/01/13 05:50:42;;;;;;;34.22;16.20;;;;;;;-1.55;100.00;102499.22;5111591;28;20119;-68
2022/01/13 05:53:08;;;;;;;26.95;15.93;;;;;;;-1.60;100.00;102501.53;5111482;28;20412;-67
2022/01/13 05:55:34;;;;;;;30.33;14.90;;;;;;;-1.61;100.00;102502.38;5111655;28;20030;-68
2022/01/13 05:57:59;;;;;;;31.33;14.07;;;;;;;-1.62;100.00;102513.63;5108410;28;20023;-67
2022/01/13 06:00:25;;;;;;;26.27;14.38;;;;;;;-1.64;100.00;102503.91;5110862;28;20030;-67
2022/01/13 06:02:51;;;;;;;28.15;14.68;;;;;;;-1.57;100.00;102501.75;5107604;28;20051;-67
2022/01/13 06:05:18;;;;;;;31.55;16.50;;;;;;;-1.54;100.00;102501.00;5111361;28;20027;-67
2022/01/13 06:07:44;;;;;;;33.42;15.85;;;;;;;-1.57;100.00;102500.84;5111520;28;20023;-67
2022/01/13 06:10:13;;;;;;;29.17;15.70;;;;;;;-1.59;100.00;102497.22;5109547;28;20108;-68
2022/01/13 06:12:39;;;;;;;29.10;16.15;;;;;;;-1.64;100.00;102501.28;5092427;28;20027;-67
2022/01/13 06:15:10;;;;;;;27.73;15.35;;;;;;;-1.61;100.00;102496.25;5111092;28;20100;-67
2022/01/13 06:17:37;;;;;;;30.88;15.90;;;;;;;-1.64;100.00;102496.06;5116449;27;20026;-68
2022/01/13 06:20:04;;;;;;;32.00;15.10;;;;;;;-1.71;100.00;102501.75;5131413;27;20035;-67
2022/01/13 06:22:30;;;;;;;29.00;15.32;;;;;;;-1.81;100.00;102489.00;5131419;27;20031;-67
2022/01/13 06:24:55;;;;;;;26.83;13.40;;;;;;;-1.73;100.00;102509.50;5131720;27;20034;-67
2022/01/13 06:27:22;;;;;;;26.90;13.45;;;;;;;-1.74;100.00;102509.41;5111590;27;20028;-67
2022/01/13 06:29:49;;;;;;;24.67;13.65;;;;;;;-1.67;100.00;102508.97;5089979;28;20028;-67
2022/01/13 06:32:14;;;;;;;24.38;12.45;;;;;;;-1.72;100.00;102499.97;5090067;28;20066;-67
2022/01/13 06:34:40;;;;;;;33.63;13.90;;;;;;;-1.76;100.00;102500.59;5091590;28;20023;-67
2022/01/13 06:37:05;;;;;;;26.13;14.25;;;;;;;-1.79;100.00;102503.03;5091493;28;20055;-68
2022/01/13 06:39:31;;;;;;;24.92;13.20;;;;;;;-1.86;100.00;102506.13;5110674;28;20626;-68
2022/01/13 06:41:56;;;;;;;22.52;13.10;;;;;;;-1.79;100.00;102513.47;5106900;28;20019;-67
2022/01/13 06:44:22;;;;;;;21.40;14.23;;;;;;;-1.80;100.00;102511.69;5110364;28;20020;-67
2022/01/13 06:46:47;;;;;;;23.02;13.05;;;;;;;-1.91;100.00;102495.41;5108741;28;20023;-67
2022/01/13 06:49:12;;;;;;;53.53;14.82;;;;;;;-1.79;100.00;102518.69;5109706;28;20570;-67
2022/01/13 06:51:38;;;;;;;26.88;14.48;;;;;;;-1.79;100.00;102522.22;5092880;28;20072;-67
2022/01/13 06:54:03;;;;;;;28.90;14.10;;;;;;;-1.81;100.00;102520.31;5110488;28;20023;-67
2022/01/13 06:56:30;;;;;;;22.42;12.65;;;;;;;-1.82;100.00;102523.75;5110126;28;20020;-67
2022/01/13 06:58:55;;;;;;;20.63;12.43;;;;;;;-1.82;100.00;102534.16;5110249;28;20089;-67
2022/01/13 07:01:22;;;;;;;23.55;12.55;;;;;;;-1.77;100.00;102533.63;5110064;28;20031;-67
2022/01/13 07:03:48;;;;;;;22.50;13.60;;;;;;;-1.81;100.00;102534.25;5110527;28;20452;-67
2022/01/13 07:06:14;;;;;;;24.75;14.23;;;;;;;-1.78;100.00;102534.41;5110161;28;20110;-67
2022/01/13 07:08:39;;;;;;;25.60;13.02;;;;;;;-1.77;100.00;102540.56;5111145;28;20019;-67
2022/01/13 07:11:05;;;;;;;25.10;13.50;;;;;;;-1.82;100.00;102528.97;5091800;28;20422;-67
2022/01/13 07:13:32;;;;;;;23.88;13.75;;;;;;;-1.84;100.00;102534.09;5110388;28;20085;-67
2022/01/13 07:16:01;;;;;;;25.48;14.85;;;;;;;-1.83;100.00;102537.59;5095772;28;20067;-67
2022/01/13 07:18:30;;;;;;;25.92;14.55;;;;;;;-1.76;100.00;102539.72;5103589;27;20040;-67
2022/01/13 07:20:56;;;;;;;27.10;14.98;;;;;;;-1.73;100.00;102534.72;5090869;28;20051;-67
2022/01/13 07:23:22;;;;;;;26.17;14.80;;;;;;;-1.83;100.00;102522.81;5097760;28;20027;-68
2022/01/13 07:25:53;;;;;;;29.45;16.05;;;;;;;-1.83;100.00;102528.03;5098354;28;20028;-67
2022/01/13 07:28:19;;;;;;;25.02;17.60;;;;;;;-1.79;100.00;102545.69;5079288;28;20055;-67
2022/01/13 07:30:44;;;;;;;26.00;15.07;;;;;;;-1.79;100.00;102540.47;5100081;28;20030;-67
2022/01/13 07:33:09;;;;;;;29.02;15.10;;;;;;;-1.76;100.00;102539.72;5097076;28;20065;-67
2022/01/13 07:35:35;;;;;;;28.05;16.48;;;;;;;-1.74;100.00;102540.72;5088942;28;20437;-67
2022/01/13 07:38:00;;;;;;;26.77;14.95;;;;;;;-1.70;100.00;102547.91;5099693;28;20468;-68
2022/01/13 07:40:26;;;;;;;22.77;13.82;;;;;;;-1.72;100.00;102549.53;5109618;28;20564;-68
2022/01/13 07:42:51;;;;;;;26.17;15.18;;;;;;;-1.63;100.00;102558.78;5090180;28;20509;-67
2022/01/13 07:45:18;;;;;;;29.45;15.65;;;;;;;-1.54;100.00;102561.00;5108553;28;20031;-67
2022/01/13 07:47:43;;;;;;;29.45;15.77;;;;;;;-1.44;100.00;102555.50;5100199;28;20020;-67
2022/01/13 07:50:11;;;;;;;29.85;15.18;;;;;;;-1.41;100.00;102540.91;5071886;28;20051;-67
2022/01/13 07:52:37;;;;;;;37.42;15.68;;;;;;;-1.26;100.00;102553.91;5089640;28;20035;-68
2022/01/13 07:55:03;;;;;;;28.15;15.68;;;;;;;-1.18;100.00;102555.22;5093270;28;20036;-67
2022/01/13 07:57:29;;;;;;;29.45;17.55;;;;;;;-1.09;100.00;102550.50;5095038;28;20024;-67
2022/01/13 07:59:56;;;;;;;25.83;15.82;;;;;;;-0.96;100.00;102534.69;5108290;28;20027;-68
2022/01/13 08:02:22;;;;;;;26.75;15.57;;;;;;;-0.55;100.00;102553.44;5111182;28;20055;-68
2022/01/13 08:04:49;;;;;;;24.50;15.48;;;;;;;-0.25;100.00;102538.44;5095339;28;20067;-67
2022/01/13 08:07:17;;;;;;;29.90;15.38;;;;;;;0.09;100.00;102541.00;5090074;28;20391;-68
2022/01/13 08:09:42;;;;;;;27.17;14.52;;;;;;;0.06;100.00;102540.88;5093798;28;20020;-67
2022/01/13 08:12:08;;;;;;;25.48;14.38;;;;;;;0.11;100.00;102555.06;5090660;28;20494;-67
2022/01/13 08:14:34;;;;;;;24.63;14.27;;;;;;;0.11;100.00;102555.06;5091240;28;20437;-67
2022/01/13 08:17:02;;;;;;;26.02;14.00;;;;;;;0.06;100.00;102554.84;5089636;28;20040;-67
2022/01/13 08:19:45;;;;;;;28.27;14.18;;;;;;;0.02;100.00;102545.03;5092304;28;20092;-67
2022/01/13 08:22:11;;;;;;;;;;;;;;;0.14;100.00;102544.75;5088630;28;20244;-67
2022/01/13 08:24:37;;;;;;;25.77;15.40;;;;;;;0.24;100.00;102554.84;5088371;28;19935;-68
2022/01/13 08:27:02;;;;;;;27.23;14.23;;;;;;;0.39;100.00;102553.00;5094733;28;20023;-68
2022/01/13 08:29:28;;;;;;;29.38;15.18;;;;;;;0.45;100.00;102553.28;5108323;28;20111;-68
2022/01/13 08:31:53;;;;;;;24.65;13.25;;;;;;;0.48;100.00;102537.75;5102362;28;20024;-68
2022/01/13 08:34:19;;;;;;;24.15;13.75;;;;;;;0.73;100.00;102551.16;5092731;28;20114;-68
2022/01/13 08:36:45;;;;;;;26.17;14.15;;;;;;;0.85;100.00;102536.94;5088304;28;20034;-68
2022/01/13 08:39:11;;;;;;;25.63;13.55;;;;;;;1.08;100.00;102545.84;5112278;28;20126;-68
2022/01/13 08:41:36;;;;;;;25.45;14.02;;;;;;;1.24;100.00;102541.38;5089620;28;20391;-68
2022/01/13 08:44:02;;;;;;;24.65;14.20;;;;;;;1.44;100.00;102537.00;5110987;28;20047;-65
2022/01/13 08:46:28;;;;;;;28.05;14.73;;;;;;;1.57;100.00;102539.34;5092190;28;20135;-67
2022/01/13 08:48:54;;;;;;;26.75;14.98;;;;;;;1.60;100.00;102549.94;5100362;28;20483;-68
2022/01/13 08:51:20;;;;;;;25.63;14.60;;;;;;;1.60;100.00;102539.47;5107875;28;20023;-68
2022/01/13 08:53:46;;;;;;;28.42;14.38;;;;;;;1.58;100.00;102535.91;5109218;28;20024;-68
2022/01/13 08:56:13;;;;;;;31.33;15.43;;;;;;;1.66;100.00;102537.13;5112104;28;20031;-68
2022/01/13 08:58:39;;;;;;;29.10;16.42;;;;;;;1.70;100.00;102536.41;5113247;28;20096;-68
2022/01/13 09:01:04;;;;;;;25.98;14.52;;;;;;;1.79;100.00;102528.03;5111133;28;20023;-68
2022/01/13 09:03:30;;;;;;;28.70;15.82;;;;;;;1.96;100.00;102529.66;5111833;28;20089;-68
2022/01/13 09:05:55;;;;;;;34.45;16.23;;;;;;;1.91;100.00;102520.69;5110935;28;20072;-68
2022/01/13 09:08:20;;;;;;;25.83;15.10;;;;;;;2.10;100.00;102529.41;5111976;28;20106;-68
2022/01/13 09:10:46;;;;;;;39.58;16.48;;;;;;;2.21;100.00;102525.47;5111595;28;20051;-68
2022/01/13 09:13:15;;;;;;;34.58;16.73;;;;;;;2.39;100.00;102527.94;5111439;28;20032;-68
2022/01/13 09:15:52;;;;;;;33.10;15.77;;;;;;;2.62;100.00;102520.16;5111969;28;20048;-68
2022/01/13 09:18:30;;;;;;;34.40;15.88;;;;;;;3.03;100.00;102521.72;5122723;27;20363;-68
2022/01/13 09:20:57;;;;;;;31.25;17.13;;;;;;;3.33;99.39;102521.97;5132078;27;20023;-68
2022/01/13 09:23:22;;;;;;;29.67;17.00;;;;;;;3.35;95.60;102515.03;5132947;27;20019;-68
2022/01/13 09:25:48;;;;;;;34.08;23.73;;;;;;;3.29;94.85;102514.81;5098906;27;20039;-68
2022/01/13 09:28:13;;;;;;;35.17;19.90;;;;;;;3.22;94.41;102512.78;5108904;28;20112;-67
2022/01/13 09:30:39;;;;;;;37.70;16.40;;;;;;;3.29;95.62;102512.19;5112123;28;20085;-66
2022/01/13 09:33:06;;;;;;;33.88;17.88;;;;;;;3.54;96.18;102512.25;5112131;28;20020;-68
2022/01/13 09:35:32;;;;;;;37.20;19.08;;;;;;;4.14;96.55;102514.31;5112303;28;20471;-66
2022/01/13 09:37:58;;;;;;;36.58;17.00;;;;;;;4.38;93.96;102525.69;5082789;28;20039;-66
2022/01/13 09:40:24;;;;;;;33.75;16.73;;;;;;;4.29;92.13;102514.81;5090999;28;20034;-66
2022/01/13 09:42:51;;;;;;;34.78;17.25;;;;;;;3.91;90.94;102510.94;5097479;27;20024;-66
2022/01/13 09:45:17;;;;;;;30.58;16.35;;;;;;;3.87;91.17;102524.81;5091059;28;20493;-66
2022/01/13 09:47:44;;;;;;;39.67;18.98;;;;;;;3.76;91.71;102520.03;5094057;28;20057;-66
2022/01/13 09:50:14;;;;;;;36.40;17.00;;;;;;;3.77;92.32;102519.19;5089784;28;20062;-67
2022/01/13 09:52:40;;;;;;;36.78;16.80;;;;;;;3.77;93.09;102522.72;5091266;28;20441;-67
2022/01/13 09:55:07;;;;;;;39.60;17.15;;;;;;;3.79;94.15;102526.28;5091229;28;20036;-67
2022/01/13 09:57:33;;;;;;;37.88;17.10;;;;;;;3.91;95.13;102515.28;5102883;28;20023;-67
2022/01/13 10:00:00;;;;;;;41.60;18.38;;;;;;;4.10;95.18;102516.81;5111513;28;20104;-67
2022/01/13 10:02:26;;;;;;;38.55;17.23;;;;;;;4.08;94.65;102503.59;5111550;28;20042;-67
2022/01/13 10:04:53;;;;;;;35.53;18.70;;;;;;;4.15;94.14;102513.50;5111040;28;20032;-67
2022/01/13 10:07:37;;;;;;;39.30;17.73;;;;;;;4.13;93.39;102514.28;5108356;28;20081;-68
2022/01/13 10:10:07;;;;;;;33.15;16.85;;;;;;;4.07;94.27;102511.44;5111041;28;20395;-67
2022/01/13 10:12:41;;;;;;;38.33;17.88;;;;;;;3.99;93.99;102513.81;5110775;28;20019;-67
2022/01/13 10:17:51;;;;;;;39.13;18.50;;;;;;;3.98;93.93;102523.47;5114382;27;20355;-67
2022/01/13 10:20:19;;;;;;;39.75;16.75;;;;;;;4.02;94.47;102513.91;5109851;28;20039;-67
2022/01/13 10:22:46;;;;;;;40.88;18.05;;;;;;;4.17;94.90;102517.06;5110647;28;20102;-67
2022/01/13 10:25:35;;;;;;;37.47;17.20;;;;;;;4.17;94.78;102518.81;5093136;28;20023;-67
2022/01/13 10:28:19;;;;;;;35.13;17.95;;;;;;;4.34;95.46;102517.59;5076947;28;20059;-67
2022/01/13 10:30:48;;;;;;;41.72;19.92;;;;;;;4.83;95.58;102516.56;5090527;28;20385;-67
2022/01/13 10:33:24;;;;;;;43.28;20.45;;;;;;;5.26;93.85;102514.34;5094485;28;20020;-67
2022/01/13 10:35:53;;;;;;;41.95;19.15;;;;;;;5.64;91.04;102511.84;5107322;28;20137;-68
2022/01/13 10:38:19;;;;;;;43.30;18.77;;;;;;;5.93;89.94;102500.38;5107738;28;20020;-68
2022/01/13 10:40:48;;;;;;;36.63;18.92;;;;;;;6.53;85.88;102517.72;5110275;28;20035;-68
2022/01/13 10:43:22;;;;;;;43.33;20.45;;;;;;;7.20;82.08;102515.72;5111074;28;20024;-68
2022/01/13 10:45:51;;;;;;;38.13;18.27;;;;;;;7.69;79.78;102513.16;5110815;28;20116;-68
2022/01/13 10:48:25;;;;;;;38.00;18.42;;;;;;;8.19;74.80;102503.47;5110624;28;20205;-68
2022/01/13 10:50:57;;;;;;;36.47;18.08;;;;;;;8.09;72.06;102516.56;5110492;28;20020;-68
2022/01/13 10:53:29;;;;;;;34.95;17.15;;;;;;;7.92;71.19;102509.19;5091931;28;20039;-68
2022/01/13 10:56:05;;;;;;;36.10;17.40;;;;;;;7.88;71.32;102504.72;5109680;28;20077;-68
2022/01/13 10:58:33;;;;;;;31.27;14.35;;;;;;;7.96;70.17;102497.78;5072206;28;20030;-68
2022/01/13 11:01:00;;;;;;;31.60;15.35;;;;;;;7.93;69.61;102486.25;5089752;28;20028;-68
2022/01/13 11:03:28;;;;;;;33.28;16.25;;;;;;;8.33;70.79;102494.03;5071679;28;20047;-68
2022/01/13 11:06:05;;;;;;;31.45;15.90;;;;;;;9.16;70.15;102497.88;5089359;28;20024;-68
2022/01/13 11:08:41;;;;;;;31.83;14.75;;;;;;;9.94;63.57;102493.44;5089139;28;20032;-68
2022/01/13 11:11:16;;;;;;;32.00;14.40;;;;;;;10.99;60.42;102495.16;5089162;28;20115;-68
2022/01/13 11:13:50;;;;;;;27.50;14.73;;;;;;;11.24;56.57;102484.59;5089345;28;20024;-68
2022/01/13 11:16:16;;;;;;;30.35;15.07;;;;;;;11.97;55.43;102479.47;5090043;28;20070;-68
2022/01/13 11:18:42;;;;;;;31.20;13.85;;;;;;;12.44;53.93;102494.59;5114863;27;20047;-68
2022/01/13 11:21:07;;;;;;;32.50;15.63;;;;;;;12.31;51.96;102500.84;5091525;28;20108;-68
2022/01/13 11:23:34;;;;;;;32.72;14.95;;;;;;;12.73;51.04;102487.47;5089854;28;20039;-68
2022/01/13 11:26:00;;;;;;;30.85;15.98;;;;;;;13.31;50.16;102492.66;5070631;28;20089;-68
2022/01/13 11:28:26;;;;;;;27.05;15.45;;;;;;;13.46;49.54;102493.44;5109087;28;20479;-67
2022/01/13 11:30:52;;;;;;;28.88;14.80;;;;;;;13.80;47.71;102499.50;5109887;28;20104;-68
2022/01/13 11:33:22;;;;;;;29.63;14.85;;;;;;;13.82;47.75;102492.38;5109448;28;20024;-68
2022/01/13 11:35:55;;;;;;;25.13;13.45;;;;;;;13.23;48.09;102490.88;5109933;28;20090;-68